Portada
METAR-TAF:

METAR-TAF

Aeropuertos :

Najran, Arabia Saudita

latitud: 17-37N, longitud: 044-25E, altitud: 1212 m

Observación

El informe se hizo hace 26 minutos, a las 12:00 UTC
Viento 8 kt del este
Temperatura 27°C
Humedad 21%
Presión 1015 hPa
Visibilidad: 7000 m

METAR: OENG 271200Z 10008KT 7000 NSC 27/03 Q1015 NOSIG

Hora: 15:26 (12:26 UTC)

Pronóstico

El informe se hizo hace 1 hora y 26 minutos, a las 11:00 UTC
Pronóstico válido del 27 a las 12 UTC al 28 a las 18 UTC
Viento 12 kt del este-sureste
Visibilidad: 8000 m
Evolucionando progresivamente
del 27 a las 18 UTC al 27 a las 20 UTC
Viento 3 kt con dirección variable

TAF: OENG 271100Z 2712/2818 12012KT 8000 NSC BECMG 2718/2720 VRB03KT

Observaciones y pronósticos meteorológicos de más de 4000 aeropuertos (mensajes METAR y TAF).

Los puntos amarillos y rojos representan las estaciones disponibles.

Ponga el ratón en el punto deseado para ver el nombre de la estación.

Haga clic para ver las observaciones y los pronósticos meteorológicos.

Para cambiar el mapa : haga clic en los botones verdes con una cruz de color negro para hacer un zoom, en el botón verde con un guión para alejar o en las flechas verdes para mapas adyacentes.


METAR-TAF: